RYR9D EPKT-LDZD
Flight info
| Callsign | RYR9D |
|---|---|
| Flight time | 1h 13m |
| Altitude | 38000 |
| Route | TUSIN DCT MIKOV DCT PETOV DCT KUDUL |
| Aircraft | A320/M-SDE3FGHIRWY/LB1 |
Departure
| Time | 2026-05-08 10:24 |
|---|---|
| Airport | Katowice Wojciech Korfanty International Airport (EPKT) |
Arrival
| Time | 2026-05-08 11:37 |
|---|---|
| Airport | Zadar Airport (LDZD) |
| Time | Latitude | Longitude | Altitude | Speed | Heading |
|---|---|---|---|---|---|
| 2026-05-08 09:42 | 50.47179 | 19.07149 | 998 ft | 0 kts | 180° |
| 2026-05-08 10:16 | 50.47181 | 19.07149 | 998 ft | 2 kts | 180° |
| 2026-05-08 10:16 | 50.47206 | 19.07149 | 998 ft | 3 kts | 180° |
| 2026-05-08 10:16 | 50.47226 | 19.07147 | 1000 ft | 4 kts | 144° |
| 2026-05-08 10:16 | 50.47235 | 19.07118 | 998 ft | 3 kts | 90° |
| 2026-05-08 10:17 | 50.47235 | 19.07091 | 998 ft | 0 kts | 90° |
| 2026-05-08 10:19 | 50.47235 | 19.07132 | 998 ft | 7 kts | 90° |
| 2026-05-08 10:19 | 50.47235 | 19.07223 | 1002 ft | 12 kts | 90° |
| 2026-05-08 10:20 | 50.47235 | 19.07593 | 1001 ft | 20 kts | 90° |
| 2026-05-08 10:20 | 50.47235 | 19.07831 | 1000 ft | 23 kts | 90° |
| 2026-05-08 10:20 | 50.47234 | 19.08099 | 998 ft | 26 kts | 90° |
| 2026-05-08 10:20 | 50.47234 | 19.08289 | 998 ft | 27 kts | 90° |
| 2026-05-08 10:21 | 50.47232 | 19.08588 | 998 ft | 28 kts | 90° |
| 2026-05-08 10:21 | 50.47232 | 19.08883 | 998 ft | 28 kts | 89° |
| 2026-05-08 10:21 | 50.47232 | 19.09183 | 1000 ft | 27 kts | 90° |
| 2026-05-08 10:21 | 50.47231 | 19.09447 | 998 ft | 23 kts | 90° |
| 2026-05-08 10:22 | 50.47230 | 19.09674 | 998 ft | 16 kts | 91° |
| 2026-05-08 10:22 | 50.47229 | 19.09835 | 998 ft | 16 kts | 90° |
| 2026-05-08 10:22 | 50.47237 | 19.10021 | 1000 ft | 18 kts | 68° |
| 2026-05-08 10:22 | 50.47317 | 19.10185 | 998 ft | 20 kts | 52° |
| 2026-05-08 10:23 | 50.47402 | 19.10355 | 999 ft | 17 kts | 52° |
| 2026-05-08 10:23 | 50.47497 | 19.10448 | 999 ft | 16 kts | 360° |
| 2026-05-08 10:23 | 50.47588 | 19.10414 | 1001 ft | 14 kts | 310° |
| 2026-05-08 10:23 | 50.47594 | 19.10222 | 1000 ft | 29 kts | 270° |
| 2026-05-08 10:24 | 50.47595 | 19.09456 | 1000 ft | 106 kts | 270° |
| 2026-05-08 10:24 | 50.47605 | 19.07966 | 1015 ft | 161 kts | 274° |
| 2026-05-08 10:24 | 50.47612 | 19.06233 | 1741 ft | 157 kts | 272° |
| 2026-05-08 10:24 | 50.47602 | 19.04505 | 2439 ft | 166 kts | 271° |
| 2026-05-08 10:25 | 50.47594 | 19.02553 | 2852 ft | 189 kts | 271° |
| 2026-05-08 10:25 | 50.47588 | 19.00350 | 3229 ft | 216 kts | 271° |
| 2026-05-08 10:25 | 50.47590 | 18.97858 | 3757 ft | 240 kts | 271° |
| 2026-05-08 10:25 | 50.47599 | 18.95127 | 4419 ft | 257 kts | 270° |
| 2026-05-08 10:26 | 50.47603 | 18.92296 | 5404 ft | 261 kts | 269° |
| 2026-05-08 10:26 | 50.47583 | 18.89440 | 6417 ft | 264 kts | 268° |
| 2026-05-08 10:26 | 50.47549 | 18.86537 | 7339 ft | 268 kts | 268° |
| 2026-05-08 10:26 | 50.47508 | 18.83590 | 8287 ft | 272 kts | 268° |
| 2026-05-08 10:27 | 50.47465 | 18.80613 | 9241 ft | 275 kts | 268° |
| 2026-05-08 10:27 | 50.47420 | 18.77590 | 10165 ft | 279 kts | 268° |
| 2026-05-08 10:27 | 50.47373 | 18.74454 | 10643 ft | 299 kts | 268° |
| 2026-05-08 10:27 | 50.47323 | 18.71066 | 11006 ft | 319 kts | 268° |
| 2026-05-08 10:28 | 50.47271 | 18.67537 | 11711 ft | 327 kts | 268° |
| 2026-05-08 10:28 | 50.47186 | 18.63951 | 12526 ft | 331 kts | 263° |
| 2026-05-08 10:28 | 50.46630 | 18.60432 | 13363 ft | 335 kts | 248° |
| 2026-05-08 10:28 | 50.45461 | 18.57240 | 14152 ft | 341 kts | 233° |
| 2026-05-08 10:29 | 50.43745 | 18.54639 | 14861 ft | 347 kts | 217° |
| 2026-05-08 10:29 | 50.41618 | 18.52793 | 15584 ft | 352 kts | 207° |
| 2026-05-08 10:29 | 50.39396 | 18.51143 | 16307 ft | 355 kts | 207° |
| 2026-05-08 10:29 | 50.37178 | 18.49499 | 17021 ft | 359 kts | 208° |
| 2026-05-08 10:30 | 50.34914 | 18.47819 | 17711 ft | 362 kts | 208° |
| 2026-05-08 10:30 | 50.32629 | 18.46136 | 18387 ft | 366 kts | 206° |
| 2026-05-08 10:30 | 50.30181 | 18.44890 | 18981 ft | 374 kts | 195° |
| 2026-05-08 10:30 | 50.27573 | 18.44450 | 19580 ft | 382 kts | 183° |
| 2026-05-08 10:31 | 50.24907 | 18.44879 | 20190 ft | 389 kts | 172° |
| 2026-05-08 10:31 | 50.22243 | 18.45721 | 20799 ft | 393 kts | 172° |
| 2026-05-08 10:31 | 50.19554 | 18.46561 | 21397 ft | 396 kts | 172° |
| 2026-05-08 10:31 | 50.16837 | 18.47400 | 22015 ft | 400 kts | 172° |
| 2026-05-08 10:32 | 50.14097 | 18.48241 | 22595 ft | 403 kts | 172° |
| 2026-05-08 10:32 | 50.11331 | 18.49088 | 23178 ft | 407 kts | 172° |
| 2026-05-08 10:32 | 50.08544 | 18.49948 | 23732 ft | 410 kts | 172° |
| 2026-05-08 10:32 | 50.05737 | 18.50820 | 24230 ft | 412 kts | 172° |
| 2026-05-08 10:33 | 50.02920 | 18.51698 | 24728 ft | 414 kts | 172° |
| 2026-05-08 10:33 | 50.00086 | 18.52578 | 25204 ft | 416 kts | 172° |
| 2026-05-08 10:33 | 49.97238 | 18.53456 | 25650 ft | 419 kts | 173° |
| 2026-05-08 10:33 | 49.94365 | 18.54342 | 26078 ft | 421 kts | 173° |
| 2026-05-08 10:34 | 49.91475 | 18.55088 | 26498 ft | 421 kts | 180° |
| 2026-05-08 10:34 | 49.88563 | 18.55009 | 26911 ft | 417 kts | 192° |
| 2026-05-08 10:34 | 49.85759 | 18.54006 | 27324 ft | 413 kts | 204° |
| 2026-05-08 10:34 | 49.83171 | 18.52146 | 27713 ft | 409 kts | 215° |
| 2026-05-08 10:35 | 49.80891 | 18.49547 | 28125 ft | 406 kts | 226° |
| 2026-05-08 10:35 | 49.78991 | 18.46346 | 28543 ft | 404 kts | 234° |
| 2026-05-08 10:35 | 49.77220 | 18.42962 | 28950 ft | 406 kts | 234° |
| 2026-05-08 10:35 | 49.75436 | 18.39573 | 29352 ft | 407 kts | 234° |
| 2026-05-08 10:36 | 49.73664 | 18.36221 | 29735 ft | 409 kts | 234° |
| 2026-05-08 10:36 | 49.71859 | 18.32812 | 30109 ft | 411 kts | 234° |
| 2026-05-08 10:36 | 49.70044 | 18.29389 | 30389 ft | 413 kts | 234° |
| 2026-05-08 10:36 | 49.68213 | 18.25946 | 30660 ft | 416 kts | 234° |
| 2026-05-08 10:37 | 49.66374 | 18.22494 | 30939 ft | 417 kts | 234° |
| 2026-05-08 10:37 | 49.64529 | 18.19028 | 31209 ft | 419 kts | 234° |
| 2026-05-08 10:37 | 49.62676 | 18.15549 | 31478 ft | 420 kts | 234° |
| 2026-05-08 10:37 | 49.60815 | 18.12059 | 31770 ft | 421 kts | 233° |
| 2026-05-08 10:38 | 49.58954 | 18.08578 | 32143 ft | 419 kts | 233° |
| 2026-05-08 10:38 | 49.57104 | 18.05122 | 32518 ft | 418 kts | 233° |
| 2026-05-08 10:38 | 49.55256 | 18.01670 | 32900 ft | 417 kts | 233° |
| 2026-05-08 10:38 | 49.53416 | 17.98234 | 33279 ft | 415 kts | 233° |
| 2026-05-08 10:39 | 49.51581 | 17.94807 | 33629 ft | 414 kts | 233° |
| 2026-05-08 10:39 | 49.49749 | 17.91393 | 33998 ft | 413 kts | 233° |
| 2026-05-08 10:39 | 49.47920 | 17.87993 | 34292 ft | 412 kts | 233° |
| 2026-05-08 10:39 | 49.46093 | 17.84599 | 34608 ft | 411 kts | 233° |
| 2026-05-08 10:40 | 49.44270 | 17.81222 | 34887 ft | 411 kts | 233° |
| 2026-05-08 10:40 | 49.42446 | 17.77848 | 35134 ft | 411 kts | 233° |
| 2026-05-08 10:40 | 49.40615 | 17.74466 | 35362 ft | 412 kts | 233° |
| 2026-05-08 10:40 | 49.38780 | 17.71077 | 35597 ft | 413 kts | 233° |
| 2026-05-08 10:41 | 49.36942 | 17.67689 | 35824 ft | 414 kts | 233° |
| 2026-05-08 10:41 | 49.35123 | 17.64345 | 36050 ft | 414 kts | 233° |
| 2026-05-08 10:41 | 49.33274 | 17.60948 | 36271 ft | 415 kts | 232° |
| 2026-05-08 10:41 | 49.31421 | 17.57545 | 36488 ft | 416 kts | 232° |
| 2026-05-08 10:42 | 49.29564 | 17.54145 | 36671 ft | 417 kts | 232° |
| 2026-05-08 10:42 | 49.27707 | 17.50741 | 36921 ft | 416 kts | 232° |
| 2026-05-08 10:42 | 49.25852 | 17.47348 | 37151 ft | 416 kts | 232° |
| 2026-05-08 10:42 | 49.23990 | 17.43952 | 37360 ft | 416 kts | 232° |
| 2026-05-08 10:43 | 49.22130 | 17.40557 | 37553 ft | 417 kts | 232° |
| 2026-05-08 10:43 | 49.20267 | 17.37157 | 37747 ft | 417 kts | 232° |
| 2026-05-08 10:43 | 49.18404 | 17.33759 | 37935 ft | 418 kts | 232° |
| 2026-05-08 10:43 | 49.16532 | 17.30351 | 38063 ft | 419 kts | 232° |
| 2026-05-08 10:44 | 49.14660 | 17.26944 | 38087 ft | 419 kts | 232° |
| 2026-05-08 10:44 | 49.10905 | 17.20145 | 38082 ft | 418 kts | 231° |
| 2026-05-08 10:45 | 49.07158 | 17.13384 | 38084 ft | 417 kts | 231° |
| 2026-05-08 10:45 | 49.03439 | 17.06675 | 38084 ft | 417 kts | 231° |
| 2026-05-08 10:46 | 48.99691 | 16.99937 | 38088 ft | 417 kts | 231° |
| 2026-05-08 10:46 | 48.95935 | 16.93209 | 38093 ft | 417 kts | 231° |
| 2026-05-08 10:47 | 48.92174 | 16.86479 | 38105 ft | 418 kts | 231° |
| 2026-05-08 10:47 | 48.88405 | 16.79738 | 38107 ft | 418 kts | 231° |
| 2026-05-08 10:48 | 48.84626 | 16.73025 | 38105 ft | 418 kts | 231° |
| 2026-05-08 10:48 | 48.80755 | 16.66429 | 38107 ft | 420 kts | 224° |
| 2026-05-08 10:49 | 48.75781 | 16.61753 | 38087 ft | 427 kts | 203° |
| 2026-05-08 10:49 | 48.69942 | 16.59790 | 38101 ft | 431 kts | 194° |
| 2026-05-08 10:50 | 48.64037 | 16.58198 | 38120 ft | 431 kts | 194° |
| 2026-05-08 10:50 | 48.58143 | 16.56573 | 38116 ft | 430 kts | 194° |
| 2026-05-08 10:51 | 48.52254 | 16.54965 | 38109 ft | 430 kts | 194° |
| 2026-05-08 10:51 | 48.46364 | 16.53378 | 38107 ft | 430 kts | 194° |
| 2026-05-08 10:52 | 48.40479 | 16.51794 | 38112 ft | 430 kts | 194° |
| 2026-05-08 10:52 | 48.34595 | 16.50211 | 38116 ft | 429 kts | 194° |
| 2026-05-08 10:53 | 48.28712 | 16.48628 | 38115 ft | 429 kts | 194° |
| 2026-05-08 10:53 | 48.22835 | 16.47061 | 38124 ft | 429 kts | 194° |
| 2026-05-08 10:54 | 48.16966 | 16.45492 | 38118 ft | 428 kts | 194° |
| 2026-05-08 10:54 | 48.11138 | 16.43938 | 38109 ft | 428 kts | 194° |
| 2026-05-08 10:55 | 48.05238 | 16.42382 | 38127 ft | 427 kts | 194° |
| 2026-05-08 10:55 | 47.99430 | 16.40840 | 38115 ft | 426 kts | 195° |
| 2026-05-08 10:56 | 47.93594 | 16.39294 | 38112 ft | 426 kts | 195° |
| 2026-05-08 10:56 | 47.87760 | 16.37760 | 38101 ft | 425 kts | 195° |
| 2026-05-08 10:57 | 47.81936 | 16.36232 | 38109 ft | 425 kts | 195° |
| 2026-05-08 10:57 | 47.73213 | 16.33928 | 38107 ft | 424 kts | 195° |
| 2026-05-08 10:58 | 47.67411 | 16.32396 | 38105 ft | 423 kts | 195° |
| 2026-05-08 10:58 | 47.61607 | 16.30882 | 38109 ft | 423 kts | 195° |
| 2026-05-08 10:59 | 47.55806 | 16.29377 | 38107 ft | 423 kts | 195° |
| 2026-05-08 10:59 | 47.50007 | 16.27871 | 38106 ft | 423 kts | 195° |
| 2026-05-08 11:00 | 47.44206 | 16.26363 | 38103 ft | 423 kts | 195° |
| 2026-05-08 11:00 | 47.38412 | 16.24860 | 38113 ft | 423 kts | 195° |
| 2026-05-08 11:01 | 47.32618 | 16.23368 | 38114 ft | 422 kts | 194° |
| 2026-05-08 11:01 | 47.26838 | 16.21883 | 38088 ft | 421 kts | 194° |
| 2026-05-08 11:02 | 47.18185 | 16.19649 | 38113 ft | 420 kts | 194° |
| 2026-05-08 11:03 | 47.12429 | 16.18168 | 38114 ft | 420 kts | 194° |
| 2026-05-08 11:03 | 47.06715 | 16.16710 | 38103 ft | 419 kts | 194° |
| 2026-05-08 11:04 | 47.00967 | 16.15241 | 38108 ft | 419 kts | 194° |
| 2026-05-08 11:04 | 46.95215 | 16.13764 | 38111 ft | 419 kts | 194° |
| 2026-05-08 11:05 | 46.89466 | 16.12300 | 38114 ft | 419 kts | 194° |
| 2026-05-08 11:05 | 46.83719 | 16.10853 | 38094 ft | 419 kts | 194° |
| 2026-05-08 11:06 | 46.77967 | 16.09396 | 38098 ft | 420 kts | 194° |
| 2026-05-08 11:06 | 46.72209 | 16.07932 | 38101 ft | 420 kts | 194° |
| 2026-05-08 11:07 | 46.66455 | 16.06485 | 38076 ft | 420 kts | 194° |
| 2026-05-08 11:07 | 46.60700 | 16.05035 | 38084 ft | 420 kts | 194° |
| 2026-05-08 11:08 | 46.54946 | 16.03588 | 38090 ft | 420 kts | 194° |
| 2026-05-08 11:08 | 46.49191 | 16.02156 | 38093 ft | 420 kts | 194° |
| 2026-05-08 11:09 | 46.43472 | 16.00726 | 38096 ft | 420 kts | 194° |
| 2026-05-08 11:09 | 46.37722 | 15.99291 | 38106 ft | 419 kts | 194° |
| 2026-05-08 11:10 | 46.31987 | 15.97835 | 38104 ft | 417 kts | 197° |
| 2026-05-08 11:10 | 46.26565 | 15.95109 | 38106 ft | 411 kts | 205° |
| 2026-05-08 11:11 | 46.22149 | 15.92574 | 38105 ft | 411 kts | 205° |
| 2026-05-08 11:11 | 46.16834 | 15.89540 | 38109 ft | 411 kts | 205° |
| 2026-05-08 11:12 | 46.11515 | 15.86522 | 38104 ft | 410 kts | 205° |
| 2026-05-08 11:12 | 46.06202 | 15.83514 | 38091 ft | 410 kts | 205° |
| 2026-05-08 11:13 | 46.00897 | 15.80503 | 38106 ft | 409 kts | 205° |
| 2026-05-08 11:13 | 45.95597 | 15.77503 | 38107 ft | 409 kts | 205° |
| 2026-05-08 11:14 | 45.90307 | 15.74511 | 38103 ft | 409 kts | 205° |
| 2026-05-08 11:14 | 45.85016 | 15.71526 | 38096 ft | 408 kts | 205° |
| 2026-05-08 11:15 | 45.79727 | 15.68551 | 38094 ft | 408 kts | 204° |
| 2026-05-08 11:15 | 45.74434 | 15.65585 | 37770 ft | 408 kts | 205° |
| 2026-05-08 11:15 | 45.71793 | 15.64106 | 37172 ft | 407 kts | 204° |
| 2026-05-08 11:16 | 45.69155 | 15.62629 | 36461 ft | 407 kts | 204° |
| 2026-05-08 11:16 | 45.66526 | 15.61156 | 35733 ft | 407 kts | 204° |
| 2026-05-08 11:16 | 45.63888 | 15.59675 | 34969 ft | 408 kts | 204° |
| 2026-05-08 11:16 | 45.61241 | 15.58193 | 34169 ft | 410 kts | 204° |
| 2026-05-08 11:17 | 45.58581 | 15.56706 | 33324 ft | 410 kts | 204° |
| 2026-05-08 11:17 | 45.55940 | 15.55236 | 32795 ft | 404 kts | 204° |
| 2026-05-08 11:17 | 45.53370 | 15.53810 | 32240 ft | 400 kts | 204° |
| 2026-05-08 11:17 | 45.50790 | 15.52382 | 31700 ft | 395 kts | 204° |
| 2026-05-08 11:18 | 45.48240 | 15.50971 | 31151 ft | 391 kts | 204° |
| 2026-05-08 11:18 | 45.45710 | 15.49570 | 30620 ft | 388 kts | 204° |
| 2026-05-08 11:18 | 45.43201 | 15.48178 | 30081 ft | 386 kts | 204° |
| 2026-05-08 11:18 | 45.40711 | 15.46795 | 29512 ft | 382 kts | 204° |
| 2026-05-08 11:19 | 45.38251 | 15.45434 | 29004 ft | 377 kts | 204° |
| 2026-05-08 11:19 | 45.35815 | 15.44086 | 28491 ft | 374 kts | 204° |
| 2026-05-08 11:19 | 45.33403 | 15.42752 | 27989 ft | 371 kts | 204° |
| 2026-05-08 11:19 | 45.30996 | 15.41423 | 27492 ft | 372 kts | 203° |
| 2026-05-08 11:20 | 45.28581 | 15.40095 | 26990 ft | 373 kts | 203° |
| 2026-05-08 11:20 | 45.26171 | 15.38771 | 26508 ft | 370 kts | 203° |
| 2026-05-08 11:20 | 45.23780 | 15.37458 | 26042 ft | 367 kts | 203° |
| 2026-05-08 11:20 | 45.21409 | 15.36156 | 25578 ft | 364 kts | 203° |
| 2026-05-08 11:21 | 45.19055 | 15.34862 | 25123 ft | 361 kts | 203° |
| 2026-05-08 11:21 | 45.16721 | 15.33578 | 24672 ft | 358 kts | 203° |
| 2026-05-08 11:21 | 45.14405 | 15.32305 | 24231 ft | 356 kts | 203° |
| 2026-05-08 11:21 | 45.12103 | 15.31039 | 23784 ft | 353 kts | 203° |
| 2026-05-08 11:22 | 45.09820 | 15.29788 | 23296 ft | 351 kts | 203° |
| 2026-05-08 11:22 | 45.07558 | 15.28552 | 22847 ft | 347 kts | 203° |
| 2026-05-08 11:22 | 45.05313 | 15.27327 | 22409 ft | 344 kts | 202° |
| 2026-05-08 11:22 | 45.03122 | 15.26130 | 21973 ft | 341 kts | 202° |
| 2026-05-08 11:23 | 45.00888 | 15.24912 | 21528 ft | 339 kts | 202° |
| 2026-05-08 11:23 | 44.98727 | 15.23735 | 21089 ft | 336 kts | 202° |
| 2026-05-08 11:23 | 44.96545 | 15.22547 | 20642 ft | 335 kts | 202° |
| 2026-05-08 11:23 | 44.94376 | 15.21367 | 20198 ft | 334 kts | 202° |
| 2026-05-08 11:24 | 44.92210 | 15.20192 | 19740 ft | 333 kts | 202° |
| 2026-05-08 11:24 | 44.90047 | 15.19020 | 19292 ft | 333 kts | 202° |
| 2026-05-08 11:24 | 44.87886 | 15.17846 | 18843 ft | 333 kts | 202° |
| 2026-05-08 11:24 | 44.85727 | 15.16670 | 18392 ft | 333 kts | 201° |
| 2026-05-08 11:25 | 44.83527 | 15.15609 | 17623 ft | 340 kts | 195° |
| 2026-05-08 11:25 | 44.81187 | 15.14819 | 16655 ft | 352 kts | 193° |
| 2026-05-08 11:25 | 44.78760 | 15.14051 | 15721 ft | 363 kts | 193° |
| 2026-05-08 11:25 | 44.76302 | 15.13300 | 15217 ft | 356 kts | 192° |
| 2026-05-08 11:26 | 44.73902 | 15.12574 | 14357 ft | 351 kts | 192° |
| 2026-05-08 11:26 | 44.71543 | 15.11856 | 13730 ft | 340 kts | 192° |
| 2026-05-08 11:26 | 44.69283 | 15.11161 | 13258 ft | 325 kts | 192° |
| 2026-05-08 11:26 | 44.67096 | 15.10482 | 12812 ft | 321 kts | 192° |
| 2026-05-08 11:27 | 44.64924 | 15.09803 | 12368 ft | 319 kts | 192° |
| 2026-05-08 11:27 | 44.62764 | 15.09129 | 11914 ft | 317 kts | 192° |
| 2026-05-08 11:27 | 44.60617 | 15.08458 | 11466 ft | 315 kts | 192° |
| 2026-05-08 11:27 | 44.58479 | 15.07792 | 11015 ft | 314 kts | 192° |
| 2026-05-08 11:28 | 44.56349 | 15.07130 | 10547 ft | 313 kts | 192° |
| 2026-05-08 11:28 | 44.54232 | 15.06475 | 10250 ft | 307 kts | 192° |
| 2026-05-08 11:28 | 44.52185 | 15.05842 | 10126 ft | 295 kts | 192° |
| 2026-05-08 11:28 | 44.50206 | 15.05230 | 9878 ft | 288 kts | 192° |
| 2026-05-08 11:29 | 44.48294 | 15.04640 | 9582 ft | 283 kts | 192° |
| 2026-05-08 11:29 | 44.46378 | 15.04045 | 9190 ft | 280 kts | 192° |
| 2026-05-08 11:29 | 44.44490 | 15.03459 | 8523 ft | 277 kts | 192° |
| 2026-05-08 11:29 | 44.42620 | 15.02880 | 7830 ft | 274 kts | 192° |
| 2026-05-08 11:30 | 44.40769 | 15.02309 | 7161 ft | 271 kts | 192° |
| 2026-05-08 11:30 | 44.38937 | 15.01746 | 6494 ft | 268 kts | 191° |
| 2026-05-08 11:30 | 44.37101 | 15.01555 | 5811 ft | 263 kts | 174° |
| 2026-05-08 11:30 | 44.35341 | 15.02136 | 5140 ft | 261 kts | 156° |
| 2026-05-08 11:31 | 44.33795 | 15.03434 | 4655 ft | 259 kts | 140° |
| 2026-05-08 11:31 | 44.32501 | 15.05164 | 4171 ft | 257 kts | 135° |
| 2026-05-08 11:31 | 44.31248 | 15.06882 | 3897 ft | 249 kts | 136° |
| 2026-05-08 11:31 | 44.30021 | 15.08557 | 3643 ft | 244 kts | 135° |
| 2026-05-08 11:32 | 44.28820 | 15.10195 | 3382 ft | 238 kts | 135° |
| 2026-05-08 11:32 | 44.27652 | 15.11788 | 3133 ft | 231 kts | 135° |
| 2026-05-08 11:32 | 44.26529 | 15.13310 | 3019 ft | 219 kts | 135° |
| 2026-05-08 11:32 | 44.25471 | 15.14747 | 3014 ft | 205 kts | 135° |
| 2026-05-08 11:33 | 44.24484 | 15.16092 | 3008 ft | 194 kts | 135° |
| 2026-05-08 11:33 | 44.23536 | 15.17390 | 2980 ft | 189 kts | 135° |
| 2026-05-08 11:33 | 44.22611 | 15.18658 | 2944 ft | 186 kts | 135° |
| 2026-05-08 11:33 | 44.21699 | 15.19906 | 2938 ft | 178 kts | 135° |
| 2026-05-08 11:34 | 44.20830 | 15.21082 | 2740 ft | 172 kts | 135° |
| 2026-05-08 11:34 | 44.19964 | 15.22243 | 2467 ft | 171 kts | 135° |
| 2026-05-08 11:34 | 44.19113 | 15.23371 | 2247 ft | 168 kts | 135° |
| 2026-05-08 11:34 | 44.18276 | 15.24504 | 2029 ft | 169 kts | 134° |
| 2026-05-08 11:35 | 44.17449 | 15.25646 | 1828 ft | 170 kts | 134° |
| 2026-05-08 11:35 | 44.16616 | 15.26810 | 1577 ft | 168 kts | 133° |
| 2026-05-08 11:35 | 44.15810 | 15.27941 | 1360 ft | 158 kts | 135° |
| 2026-05-08 11:35 | 44.15071 | 15.28940 | 1230 ft | 142 kts | 135° |
| 2026-05-08 11:36 | 44.14359 | 15.29877 | 1017 ft | 140 kts | 134° |
| 2026-05-08 11:36 | 44.13656 | 15.30830 | 854 ft | 142 kts | 134° |
| 2026-05-08 11:36 | 44.12944 | 15.31796 | 683 ft | 143 kts | 134° |
| 2026-05-08 11:36 | 44.12238 | 15.32759 | 467 ft | 140 kts | 134° |
| 2026-05-08 11:37 | 44.11553 | 15.33687 | 286 ft | 137 kts | 133° |
| 2026-05-08 11:37 | 44.10951 | 15.34507 | 266 ft | 100 kts | 135° |
| 2026-05-08 11:37 | 44.10568 | 15.35025 | 271 ft | 62 kts | 135° |
| 2026-05-08 11:37 | 44.10309 | 15.35376 | 271 ft | 40 kts | 136° |
| 2026-05-08 11:38 | 44.10150 | 15.35592 | 273 ft | 24 kts | 135° |
| 2026-05-08 11:38 | 44.10063 | 15.35706 | 275 ft | 13 kts | 153° |
| 2026-05-08 11:38 | 44.09995 | 15.35669 | 277 ft | 9 kts | 224° |
| 2026-05-08 11:38 | 44.09959 | 15.35617 | 278 ft | 6 kts | 225° |
| 2026-05-08 11:39 | 44.09931 | 15.35579 | 279 ft | 6 kts | 225° |
| 2026-05-08 11:39 | 44.09882 | 15.35529 | 279 ft | 10 kts | 195° |
| 2026-05-08 11:39 | 44.09817 | 15.35532 | 279 ft | 9 kts | 174° |
| 2026-05-08 11:39 | 44.09754 | 15.35536 | 279 ft | 9 kts | 179° |
| 2026-05-08 11:40 | 44.09695 | 15.35538 | 284 ft | 8 kts | 178° |
| 2026-05-08 11:40 | 44.09652 | 15.35513 | 282 ft | 7 kts | 250° |
| 2026-05-08 11:40 | 44.09650 | 15.35456 | 279 ft | 3 kts | 269° |
| 2026-05-08 11:40 | 44.09650 | 15.35436 | 279 ft | 0 kts | 269° |